createdAt,value
2023-03-01T00:00:17.256Z,1.20
2023-03-01T00:02:44.331Z,1.10
2023-03-01T00:05:11.256Z,1.10
2023-03-01T00:07:38.179Z,1.20
2023-03-01T00:10:05.433Z,1.10
2023-03-01T00:12:32.910Z,1.00
2023-03-01T00:14:59.847Z,1.10
2023-03-01T00:17:28.426Z,1.20
2023-03-01T00:19:55.329Z,1.20
2023-03-01T00:22:22.193Z,1.10
2023-03-01T00:24:49.139Z,1.10
2023-03-01T00:27:16.038Z,1.10
2023-03-01T00:29:42.962Z,1.00
2023-03-01T00:32:09.893Z,1.20
2023-03-01T00:34:36.938Z,1.00
2023-03-01T00:37:06.167Z,1.00
2023-03-01T00:39:34.309Z,0.90
2023-03-01T00:42:01.809Z,0.90
2023-03-01T00:44:29.417Z,0.90
2023-03-01T00:46:56.348Z,0.90
2023-03-01T00:49:25.268Z,1.00
2023-03-01T00:51:52.202Z,1.00
2023-03-01T00:54:19.163Z,0.90
2023-03-01T00:56:46.091Z,1.00
2023-03-01T00:59:12.994Z,1.10
2023-03-01T01:01:40.226Z,1.10
2023-03-01T01:04:10.624Z,1.20
2023-03-01T01:06:40.784Z,1.20
2023-03-01T01:09:08.391Z,1.10
2023-03-01T01:11:38.462Z,1.00
2023-03-01T01:14:06.047Z,1.10
2023-03-01T01:16:33.402Z,1.10
2023-03-01T01:19:00.653Z,1.00
2023-03-01T01:21:28.405Z,0.90
2023-03-01T01:23:55.718Z,0.80
2023-03-01T01:26:29.328Z,0.70
2023-03-01T01:28:56.565Z,0.70
2023-03-01T01:31:24.770Z,0.50
2023-03-01T01:33:55.475Z,0.30
2023-03-01T01:36:22.923Z,0.40
2023-03-01T01:38:50.218Z,0.40
2023-03-01T01:41:17.697Z,0.30
2023-03-01T01:44:11.476Z,0.20
2023-03-01T01:46:56.469Z,0.20
2023-03-01T01:49:45.799Z,0.30
2023-03-01T01:52:21.773Z,0.30
2023-03-01T01:54:53.061Z,0.30
2023-03-01T01:57:33.981Z,0.00
2023-03-01T02:00:05.107Z,-0.20
2023-03-01T02:02:32.415Z,0.00
2023-03-01T02:05:11.468Z,0.10
2023-03-01T02:07:40.303Z,0.00
2023-03-01T02:10:08.008Z,0.10
2023-03-01T02:12:36.943Z,0.20
2023-03-01T02:15:04.298Z,0.30
2023-03-01T02:17:31.231Z,0.30
2023-03-01T02:20:32.006Z,0.40
2023-03-01T02:22:59.076Z,0.50
2023-03-01T02:26:12.350Z,0.50
2023-03-01T02:28:43.283Z,0.40
2023-03-01T02:31:34.219Z,0.30
2023-03-01T02:34:05.444Z,0.20
2023-03-01T02:36:48.671Z,0.10
2023-03-01T02:39:20.875Z,-0.10
2023-03-01T02:41:51.221Z,-0.10
2023-03-01T02:44:18.532Z,0.00
2023-03-01T02:46:48.733Z,0.00
2023-03-01T02:49:24.168Z,0.00
2023-03-01T02:51:54.195Z,-0.10
2023-03-01T02:55:11.748Z,-0.30
2023-03-01T02:57:43.192Z,-0.30
2023-03-01T03:00:20.291Z,-0.30
2023-03-01T03:02:53.042Z,-0.50
2023-03-01T03:05:29.302Z,-0.50
2023-03-01T03:07:58.128Z,-0.50
2023-03-01T03:10:34.248Z,-0.50
2023-03-01T03:13:09.324Z,-0.40
2023-03-01T03:15:40.053Z,-0.40
2023-03-01T03:18:12.903Z,-0.40
2023-03-01T03:20:41.608Z,-0.30
2023-03-01T03:23:08.778Z,-0.20
2023-03-01T03:25:38.736Z,-0.20
2023-03-01T03:28:10.795Z,-0.20
2023-03-01T03:30:40.618Z,-0.20
2023-03-01T03:33:08.184Z,-0.10
2023-03-01T03:35:42.210Z,-0.30
2023-03-01T03:38:16.728Z,-0.20
2023-03-01T03:40:49.984Z,-0.20
2023-03-01T03:43:23.016Z,-0.20
2023-03-01T03:45:51.687Z,0.00
2023-03-01T03:48:19.783Z,0.20
2023-03-01T03:50:52.460Z,0.10
2023-03-01T03:53:21.049Z,0.10
2023-03-01T03:55:50.330Z,0.10
2023-03-01T03:58:19.219Z,0.20
2023-03-01T04:00:47.234Z,0.10
2023-03-01T04:03:16.625Z,0.10
2023-03-01T04:05:43.788Z,0.20
2023-03-01T04:08:10.935Z,0.30
2023-03-01T04:10:38.972Z,0.40
2023-03-01T04:13:08.130Z,0.40
2023-03-01T04:15:35.383Z,0.50
2023-03-01T04:18:02.878Z,0.50
2023-03-01T04:20:34.540Z,0.60
2023-03-01T04:23:16.820Z,0.60
2023-03-01T04:25:46.701Z,0.50
2023-03-01T04:28:13.633Z,0.60
2023-03-01T04:30:40.798Z,0.60
2023-03-01T04:33:09.869Z,0.60
2023-03-01T04:35:37.990Z,0.60
2023-03-01T04:38:06.287Z,0.60
2023-03-01T04:40:33.885Z,0.70
2023-03-01T04:43:00.883Z,0.70
2023-03-01T04:45:28.806Z,0.70
2023-03-01T04:47:55.845Z,0.60
2023-03-01T04:50:24.541Z,0.60
2023-03-01T04:52:51.787Z,0.40
2023-03-01T04:55:19.694Z,0.50
2023-03-01T04:57:48.574Z,0.50
2023-03-01T05:00:23.613Z,0.40
2023-03-01T05:02:56.219Z,0.50
2023-03-01T05:05:33.519Z,0.40
2023-03-01T05:08:04.021Z,0.50
2023-03-01T05:10:33.341Z,0.70
2023-03-01T05:13:00.800Z,0.70
2023-03-01T05:15:29.217Z,0.80
2023-03-01T05:17:59.640Z,0.80
2023-03-01T05:20:27.983Z,0.90
2023-03-01T05:23:00.648Z,0.70
2023-03-01T05:25:28.435Z,0.50
2023-03-01T05:27:55.368Z,0.60
2023-03-01T05:30:22.666Z,0.50
2023-03-01T05:32:56.630Z,0.60
2023-03-01T05:35:24.416Z,0.70
2023-03-01T05:37:52.240Z,0.80
2023-03-01T05:40:21.372Z,0.90
2023-03-01T05:42:55.161Z,1.00
2023-03-01T05:45:24.504Z,1.00
2023-03-01T05:47:52.185Z,0.90
2023-03-01T05:50:30.172Z,1.00
2023-03-01T05:53:06.765Z,0.90
2023-03-01T05:55:34.471Z,0.70
2023-03-01T05:58:08.633Z,0.80
2023-03-01T06:00:35.973Z,1.00
2023-03-01T06:03:03.470Z,0.90
2023-03-01T06:05:31.062Z,0.70
2023-03-01T06:08:00.829Z,0.90
2023-03-01T06:10:28.227Z,1.00
2023-03-01T06:12:55.863Z,0.90
2023-03-01T06:15:24.042Z,0.80
2023-03-01T06:17:51.833Z,0.70
2023-03-01T06:20:24.520Z,0.70
2023-03-01T06:22:52.037Z,0.40
2023-03-01T06:25:21.463Z,0.40
2023-03-01T06:27:49.685Z,0.50
2023-03-01T06:30:18.799Z,0.70
2023-03-01T06:32:45.782Z,0.70
2023-03-01T06:35:14.910Z,0.90
2023-03-01T06:37:42.352Z,0.80
2023-03-01T06:40:12.555Z,0.70
2023-03-01T06:42:41.969Z,0.80
2023-03-01T06:45:10.206Z,0.70
2023-03-01T06:47:37.145Z,0.80
2023-03-01T06:50:04.474Z,0.90
2023-03-01T06:52:31.790Z,0.70
2023-03-01T06:54:58.824Z,0.50
2023-03-01T06:57:25.940Z,0.50
2023-03-01T06:59:52.935Z,0.50
2023-03-01T07:02:20.071Z,0.50
2023-03-01T07:04:47.124Z,0.50
2023-03-01T07:07:14.082Z,0.60
2023-03-01T07:09:41.120Z,0.60
2023-03-01T07:12:09.028Z,0.60
2023-03-01T07:14:36.036Z,0.70
2023-03-01T07:17:03.006Z,0.70
2023-03-01T07:19:30.495Z,0.90
2023-03-01T07:21:57.831Z,0.70
2023-03-01T07:24:24.986Z,1.00
2023-03-01T07:26:52.999Z,1.20
2023-03-01T07:29:20.271Z,1.20
2023-03-01T07:31:47.238Z,1.40
2023-03-01T07:34:14.152Z,1.60
2023-03-01T07:36:44.076Z,1.60
2023-03-01T07:39:11.945Z,1.30
2023-03-01T07:41:38.987Z,1.20
2023-03-01T07:44:06.267Z,1.30
2023-03-01T07:46:33.713Z,1.50
2023-03-01T07:49:00.728Z,1.50
2023-03-01T07:51:27.789Z,1.60
2023-03-01T07:53:54.756Z,1.80
2023-03-01T07:56:23.051Z,1.80
2023-03-01T07:58:51.205Z,1.80
2023-03-01T08:01:20.495Z,1.80
2023-03-01T08:03:47.756Z,2.00
2023-03-01T08:06:18.182Z,2.10
2023-03-01T08:08:45.944Z,1.90
2023-03-01T08:11:14.598Z,1.70
2023-03-01T08:13:43.341Z,1.90
2023-03-01T08:16:15.679Z,1.90
2023-03-01T08:18:43.775Z,1.80
2023-03-01T08:21:13.556Z,2.00
2023-03-01T08:23:41.466Z,1.90
2023-03-01T08:26:14.524Z,2.00
2023-03-01T08:28:41.956Z,2.40
2023-03-01T08:31:33.759Z,2.40
2023-03-01T08:34:03.075Z,2.50
2023-03-01T08:36:34.456Z,2.30
2023-03-01T08:39:01.929Z,2.50
2023-03-01T08:41:29.080Z,2.50
2023-03-01T08:43:59.820Z,2.40
2023-03-01T08:46:44.215Z,2.50
2023-03-01T08:49:15.992Z,2.70
2023-03-01T08:51:44.456Z,2.80
2023-03-01T08:54:15.816Z,2.80
2023-03-01T08:56:43.440Z,3.00
2023-03-01T08:59:14.293Z,3.20
2023-03-01T09:01:44.243Z,3.30
2023-03-01T09:04:15.749Z,3.40
2023-03-01T09:06:43.150Z,3.50
2023-03-01T09:09:18.455Z,3.60
2023-03-01T09:11:51.069Z,3.70
2023-03-01T09:14:18.308Z,4.10
2023-03-01T09:16:46.085Z,4.20
2023-03-01T09:19:13.785Z,4.00
2023-03-01T09:21:41.556Z,4.00
2023-03-01T09:24:14.895Z,4.20
2023-03-01T09:26:41.958Z,4.40
2023-03-01T09:29:10.696Z,4.40
2023-03-01T09:31:37.995Z,4.40
2023-03-01T09:34:05.752Z,4.80
2023-03-01T09:36:34.089Z,5.10
2023-03-01T09:39:01.755Z,5.40
2023-03-01T09:41:43.806Z,5.40
2023-03-01T09:44:19.682Z,5.70
2023-03-01T09:46:47.036Z,5.40
2023-03-01T09:49:20.618Z,4.80
2023-03-01T09:52:00.815Z,4.70
2023-03-01T09:54:28.357Z,5.00
2023-03-01T09:57:05.497Z,5.00
2023-03-01T09:59:55.463Z,5.30
2023-03-01T10:02:37.348Z,5.10
2023-03-01T10:05:22.990Z,5.50
2023-03-01T10:08:07.349Z,5.30
2023-03-01T10:10:38.163Z,5.20
2023-03-01T10:13:22.754Z,5.40
2023-03-01T10:16:03.071Z,5.30
2023-03-01T10:18:33.707Z,5.30
2023-03-01T10:21:01.782Z,5.10
2023-03-01T10:23:32.799Z,5.30
2023-03-01T10:26:10.023Z,5.50
2023-03-01T10:28:54.791Z,5.30
2023-03-01T10:31:30.354Z,5.30
2023-03-01T10:33:58.209Z,5.40
2023-03-01T10:36:25.634Z,5.80
2023-03-01T10:38:57.866Z,6.40
2023-03-01T10:41:27.887Z,6.50
2023-03-01T10:43:57.578Z,6.40
2023-03-01T10:46:33.862Z,6.40
2023-03-01T10:49:23.516Z,6.30
2023-03-01T10:51:52.635Z,6.40
2023-03-01T10:54:31.354Z,6.70
2023-03-01T10:57:04.652Z,7.10
2023-03-01T10:59:39.866Z,6.60
2023-03-01T11:02:30.470Z,6.50
2023-03-01T11:05:04.140Z,6.30
2023-03-01T11:07:31.294Z,6.20
2023-03-01T11:09:58.372Z,6.20
2023-03-01T11:12:26.668Z,6.20
2023-03-01T11:14:57.184Z,6.10
2023-03-01T11:17:36.629Z,6.30
2023-03-01T11:20:15.171Z,6.40
2023-03-01T11:22:57.660Z,6.70
2023-03-01T11:25:40.035Z,6.90
2023-03-01T11:28:08.993Z,6.80
2023-03-01T11:31:06.783Z,6.90
2023-03-01T11:34:03.570Z,7.30
2023-03-01T11:36:38.311Z,7.50
2023-03-01T11:39:26.993Z,7.80
2023-03-01T11:42:19.983Z,8.00
2023-03-01T11:44:50.813Z,8.00
2023-03-01T11:47:29.394Z,8.30
2023-03-01T11:52:59.120Z,9.00
2023-03-01T11:55:31.654Z,9.20
2023-03-01T11:58:39.985Z,9.20
2023-03-01T12:01:31.433Z,8.90
2023-03-01T12:04:07.037Z,8.90
2023-03-01T12:07:05.087Z,8.60
2023-03-01T12:10:00.410Z,8.40
2023-03-01T12:12:40.023Z,7.40
2023-03-01T12:15:32.757Z,8.50
2023-03-01T12:18:17.580Z,8.60
2023-03-01T12:21:01.396Z,8.50
2023-03-01T12:23:58.974Z,8.90
2023-03-01T12:26:30.998Z,9.10
2023-03-01T12:29:27.360Z,9.10
2023-03-01T12:32:12.910Z,9.30
2023-03-01T12:34:56.901Z,9.50
2023-03-01T12:37:36.285Z,9.70
2023-03-01T12:40:22.191Z,9.90
2023-03-01T12:42:52.886Z,9.80
2023-03-01T12:45:19.790Z,9.80
2023-03-01T12:47:55.708Z,9.90
2023-03-01T12:50:40.090Z,9.70
2023-03-01T12:53:14.258Z,9.30
2023-03-01T12:55:44.005Z,8.80
2023-03-01T12:58:27.155Z,8.80
2023-03-01T13:01:23.349Z,9.00
2023-03-01T13:04:18.465Z,8.70
2023-03-01T13:07:12.951Z,8.60
2023-03-01T13:10:07.822Z,8.50
2023-03-01T13:13:01.545Z,8.40
2023-03-01T13:15:31.530Z,8.20
2023-03-01T13:17:59.870Z,8.30
2023-03-01T13:20:31.235Z,8.40
2023-03-01T13:23:12.332Z,8.70
2023-03-01T13:25:58.644Z,8.90
2023-03-01T13:28:39.093Z,9.10
2023-03-01T13:31:08.447Z,8.90
2023-03-01T13:33:46.930Z,8.90
2023-03-01T13:36:30.136Z,8.90
2023-03-01T13:38:59.215Z,9.20
2023-03-01T13:41:53.498Z,8.80
2023-03-01T13:44:37.448Z,8.80
2023-03-01T13:47:07.466Z,8.80
2023-03-01T13:49:51.655Z,8.60
2023-03-01T13:52:45.464Z,8.80
2023-03-01T13:55:15.139Z,9.00
2023-03-01T13:57:47.416Z,9.10
2023-03-01T14:00:31.586Z,9.30
2023-03-01T14:03:15.440Z,9.20
2023-03-01T14:05:45.422Z,9.10
2023-03-01T14:08:24.634Z,9.10
2023-03-01T14:11:06.629Z,9.10
2023-03-01T14:13:48.260Z,9.10
2023-03-01T14:16:42.834Z,9.20
2023-03-01T14:19:33.204Z,9.10
2023-03-01T14:22:42.053Z,9.00
2023-03-01T14:25:31.070Z,8.90
2023-03-01T14:28:19.777Z,8.70
2023-03-01T14:30:49.141Z,8.70
2023-03-01T14:33:22.730Z,8.90
2023-03-01T14:36:09.079Z,8.80
2023-03-01T14:38:43.617Z,8.80
2023-03-01T14:41:23.548Z,8.90
2023-03-01T14:43:57.270Z,9.20
2023-03-01T14:46:32.354Z,9.10
2023-03-01T14:49:10.227Z,9.20
2023-03-01T14:51:42.820Z,9.20
2023-03-01T14:54:24.534Z,9.10
2023-03-01T14:56:52.963Z,9.20
2023-03-01T14:59:24.532Z,9.20
2023-03-01T15:01:57.557Z,9.00
2023-03-01T15:04:27.236Z,9.00
2023-03-01T15:06:56.045Z,9.10
2023-03-01T15:09:23.919Z,9.00
2023-03-01T15:11:51.000Z,9.30
2023-03-01T15:14:52.196Z,9.10
2023-03-01T15:17:34.101Z,9.00
2023-03-01T15:20:03.382Z,8.90
2023-03-01T15:22:30.460Z,9.10
2023-03-01T15:24:57.870Z,9.00
2023-03-01T15:27:27.087Z,9.10
2023-03-01T15:30:03.210Z,9.10
2023-03-01T15:32:40.186Z,9.00
2023-03-01T15:35:46.706Z,8.80
2023-03-01T15:38:34.590Z,8.80
2023-03-01T15:41:04.573Z,8.80
2023-03-01T15:43:42.244Z,8.70
2023-03-01T15:46:33.134Z,8.70
2023-03-01T15:49:05.933Z,8.70
2023-03-01T15:51:36.101Z,8.70
2023-03-01T15:54:32.175Z,8.70
2023-03-01T15:56:59.157Z,8.70
2023-03-01T15:59:26.096Z,8.70
2023-03-01T16:01:53.094Z,8.70
2023-03-01T16:04:24.200Z,8.60
2023-03-01T16:06:55.209Z,8.50
2023-03-01T16:09:26.699Z,8.60
2023-03-01T16:11:55.000Z,8.40
2023-03-01T16:14:23.005Z,8.30
2023-03-01T16:16:50.453Z,8.20
2023-03-01T16:19:17.509Z,8.20
2023-03-01T16:21:47.646Z,8.20
2023-03-01T16:24:14.825Z,8.20
2023-03-01T16:26:43.090Z,8.30
2023-03-01T16:29:10.349Z,8.30
2023-03-01T16:31:37.354Z,8.30
2023-03-01T16:34:04.588Z,8.30
2023-03-01T16:36:31.605Z,8.30
2023-03-01T16:39:01.936Z,8.30
2023-03-01T16:41:29.711Z,8.20
2023-03-01T16:43:57.203Z,8.20
2023-03-01T16:46:32.021Z,8.20
2023-03-01T16:48:59.132Z,8.00
2023-03-01T16:51:26.318Z,8.00
2023-03-01T16:53:53.673Z,7.80
2023-03-01T16:56:20.989Z,7.60
2023-03-01T16:58:48.888Z,7.60
2023-03-01T17:01:18.784Z,7.60
2023-03-01T17:03:47.455Z,7.70
2023-03-01T17:06:21.445Z,7.70
2023-03-01T17:08:48.452Z,7.70
2023-03-01T17:11:20.026Z,7.80
2023-03-01T17:13:47.567Z,7.80
2023-03-01T17:16:17.451Z,7.70
2023-03-01T17:18:44.424Z,7.80
2023-03-01T17:21:11.748Z,7.80
2023-03-01T17:23:40.351Z,7.80
2023-03-01T17:26:07.904Z,7.80
2023-03-01T17:28:36.200Z,7.80
2023-03-01T17:31:05.081Z,7.80
2023-03-01T17:33:32.448Z,7.80
2023-03-01T17:36:00.187Z,7.80
2023-03-01T17:38:27.612Z,7.70
2023-03-01T17:40:54.568Z,7.60
2023-03-01T17:43:21.651Z,7.70
2023-03-01T17:45:50.802Z,7.70
2023-03-01T17:48:18.193Z,7.60
2023-03-01T17:50:45.638Z,7.40
2023-03-01T17:53:12.749Z,7.30
2023-03-01T17:55:42.090Z,7.30
2023-03-01T17:58:10.989Z,7.20
2023-03-01T18:00:38.176Z,7.10
2023-03-01T18:03:05.545Z,7.10
2023-03-01T18:05:33.713Z,7.00
2023-03-01T18:08:00.689Z,7.00
2023-03-01T18:10:27.933Z,7.00
2023-03-01T18:12:54.910Z,7.00
2023-03-01T18:15:21.923Z,7.00
2023-03-01T18:17:49.182Z,7.00
2023-03-01T18:20:17.922Z,6.80
2023-03-01T18:22:45.676Z,6.70
2023-03-01T18:25:14.006Z,6.60
2023-03-01T18:27:41.083Z,6.60
2023-03-01T18:30:10.698Z,6.70
2023-03-01T18:32:39.657Z,6.70
2023-03-01T18:35:07.933Z,6.70
2023-03-01T18:37:34.926Z,6.70
2023-03-01T18:40:02.287Z,6.80
2023-03-01T18:42:29.292Z,6.60
2023-03-01T18:44:56.298Z,6.60
2023-03-01T18:47:23.217Z,6.70
2023-03-01T18:49:50.171Z,6.70
2023-03-01T18:52:17.113Z,6.80
2023-03-01T18:54:44.008Z,6.80
2023-03-01T18:57:11.003Z,6.90
2023-03-01T18:59:37.918Z,6.70
2023-03-01T19:02:05.021Z,6.70
2023-03-01T19:04:32.062Z,6.80
2023-03-01T19:07:02.146Z,6.80
2023-03-01T19:09:29.209Z,6.80
2023-03-01T19:11:58.891Z,6.80
2023-03-01T19:14:26.001Z,6.70
2023-03-01T19:16:53.143Z,6.60
2023-03-01T19:19:20.093Z,6.50
2023-03-01T19:21:55.961Z,6.40
2023-03-01T19:24:31.601Z,6.40
2023-03-01T19:26:58.579Z,6.40
2023-03-01T19:29:26.327Z,6.30
2023-03-01T19:31:53.338Z,6.30
2023-03-01T19:34:22.879Z,6.30
2023-03-01T19:36:49.907Z,6.30
2023-03-01T19:39:17.022Z,6.30
2023-03-01T19:41:44.491Z,6.20
2023-03-01T19:44:11.953Z,6.20
2023-03-01T19:46:39.498Z,6.20
2023-03-01T19:49:06.997Z,6.20
2023-03-01T19:51:36.199Z,6.10
2023-03-01T19:54:05.375Z,6.10
2023-03-01T19:56:32.616Z,5.90
2023-03-01T19:59:00.699Z,5.80
2023-03-01T20:01:33.016Z,5.80
2023-03-01T20:04:03.828Z,5.70
2023-03-01T20:06:31.645Z,5.80
2023-03-01T20:09:00.802Z,5.90
2023-03-01T20:11:31.904Z,5.70
2023-03-01T20:13:59.007Z,5.70
2023-03-01T20:16:26.931Z,5.80
2023-03-01T20:18:54.516Z,5.80
2023-03-01T20:21:25.115Z,6.00
2023-03-01T20:23:52.898Z,6.10
2023-03-01T20:26:21.758Z,6.00
2023-03-01T20:28:50.959Z,5.90
2023-03-01T20:31:20.310Z,6.00
2023-03-01T20:33:48.026Z,6.10
2023-03-01T20:36:16.164Z,6.20
2023-03-01T20:38:43.116Z,6.20
2023-03-01T20:41:12.801Z,6.20
2023-03-01T20:43:41.736Z,6.20
2023-03-01T20:46:11.466Z,6.20
2023-03-01T20:48:39.994Z,6.30
2023-03-01T20:51:08.979Z,6.40
2023-03-01T20:53:36.269Z,6.20
2023-03-01T20:56:05.055Z,6.10
2023-03-01T20:58:35.820Z,6.10
2023-03-01T21:01:04.607Z,6.20
2023-03-01T21:03:31.883Z,6.10
2023-03-01T21:06:00.691Z,6.20
2023-03-01T21:08:28.556Z,6.20
2023-03-01T21:10:56.911Z,6.30
2023-03-01T21:13:25.110Z,6.20
2023-03-01T21:15:57.084Z,6.20
2023-03-01T21:18:29.701Z,6.10
2023-03-01T21:21:01.060Z,6.10
2023-03-01T21:23:32.510Z,6.20
2023-03-01T21:26:03.639Z,6.30
2023-03-01T21:28:33.308Z,6.30
2023-03-01T21:31:22.273Z,6.20
2023-03-01T21:33:54.543Z,6.10
2023-03-01T21:36:23.299Z,6.20
2023-03-01T21:38:51.717Z,6.10
2023-03-01T21:41:24.487Z,6.00
2023-03-01T21:43:53.170Z,6.00
2023-03-01T21:46:23.341Z,6.00
2023-03-01T21:48:51.922Z,6.20
2023-03-01T21:51:20.766Z,6.20
2023-03-01T21:53:48.111Z,6.10
2023-03-01T21:56:23.448Z,6.00
2023-03-01T21:58:50.682Z,5.80
2023-03-01T22:01:21.303Z,6.00
2023-03-01T22:03:48.432Z,6.10
2023-03-01T22:06:43.498Z,5.90
2023-03-01T22:09:19.810Z,5.90
2023-03-01T22:11:49.642Z,5.90
2023-03-01T22:14:18.372Z,5.80
2023-03-01T22:16:47.688Z,5.80
2023-03-01T22:19:16.400Z,5.80
2023-03-01T22:21:46.543Z,5.80
2023-03-01T22:24:15.039Z,5.90
2023-03-01T22:26:44.601Z,5.90
2023-03-01T22:29:14.588Z,5.80
2023-03-01T22:31:42.554Z,5.90
2023-03-01T22:34:10.485Z,5.70
2023-03-01T22:36:39.454Z,5.70
2023-03-01T22:39:07.019Z,5.70
2023-03-01T22:41:44.293Z,5.70
2023-03-01T22:44:16.767Z,5.60
2023-03-01T22:46:44.367Z,5.50
2023-03-01T22:49:11.523Z,5.60
2023-03-01T22:51:40.865Z,5.50
2023-03-01T22:54:08.508Z,5.50
2023-03-01T22:56:37.205Z,5.40
2023-03-01T22:59:08.770Z,5.30
2023-03-01T23:01:37.091Z,5.20
2023-03-01T23:04:04.647Z,5.20
2023-03-01T23:06:32.155Z,5.20
2023-03-01T23:09:02.460Z,5.10
2023-03-01T23:11:29.918Z,5.00
2023-03-01T23:13:59.285Z,5.00
2023-03-01T23:16:26.842Z,5.00
2023-03-01T23:19:00.088Z,4.90
2023-03-01T23:21:28.175Z,4.90
2023-03-01T23:23:56.356Z,4.80
2023-03-01T23:26:26.988Z,4.80
2023-03-01T23:28:55.789Z,4.80
2023-03-01T23:31:23.429Z,4.70
2023-03-01T23:33:50.334Z,4.70
2023-03-01T23:36:21.005Z,4.60
2023-03-01T23:38:53.676Z,4.60
2023-03-01T23:41:23.016Z,4.40
2023-03-01T23:43:52.751Z,4.40
2023-03-01T23:46:21.582Z,4.40
2023-03-01T23:48:49.038Z,4.40
2023-03-01T23:51:17.942Z,4.40
2023-03-01T23:53:57.431Z,4.50
2023-03-01T23:56:33.462Z,4.40
2023-03-01T23:59:09.219Z,4.00
